createdAt,value
2019-01-12T00:01:54.718Z,46.70
2019-01-12T00:05:00.020Z,46.70
2019-01-12T00:08:05.109Z,46.60
2019-01-12T00:11:10.228Z,46.70
2019-01-12T00:14:15.378Z,46.90
2019-01-12T00:17:20.518Z,47.10
2019-01-12T00:20:26.150Z,46.90
2019-01-12T00:23:31.821Z,47.00
2019-01-12T00:26:36.975Z,47.20
2019-01-12T00:29:43.708Z,47.20
2019-01-12T00:32:48.608Z,47.10
2019-01-12T00:35:53.642Z,47.20
2019-01-12T00:38:58.797Z,47.50
2019-01-12T00:42:03.890Z,47.80
2019-01-12T00:45:09.950Z,47.80
2019-01-12T00:48:16.362Z,47.70
2019-01-12T00:51:21.602Z,47.70
2019-01-12T00:54:27.223Z,47.50
2019-01-12T00:57:32.136Z,47.30
2019-01-12T01:00:37.071Z,47.00
2019-01-12T01:03:42.068Z,47.10
2019-01-12T01:06:47.157Z,47.20
2019-01-12T01:09:52.494Z,47.00
2019-01-12T01:12:57.838Z,46.80
2019-01-12T01:16:02.864Z,46.90
2019-01-12T01:19:07.981Z,46.50
2019-01-12T01:22:13.052Z,46.70
2019-01-12T01:25:18.389Z,46.80
2019-01-12T01:28:23.478Z,47.00
2019-01-12T01:31:28.612Z,46.80
2019-01-12T01:34:33.617Z,47.10
2019-01-12T01:37:38.745Z,47.40
2019-01-12T01:40:43.881Z,47.90
2019-01-12T01:43:49.037Z,48.10
2019-01-12T01:46:53.979Z,48.50
2019-01-12T01:49:59.144Z,48.90
2019-01-12T01:53:04.004Z,49.00
2019-01-12T01:56:09.192Z,49.20
2019-01-12T01:59:15.150Z,49.50
2019-01-12T02:02:20.180Z,49.30
2019-01-12T02:05:25.114Z,49.30
2019-01-12T02:08:29.986Z,49.50
2019-01-12T02:11:35.294Z,52.40
2019-01-12T02:14:40.453Z,49.80
2019-01-12T02:17:45.210Z,49.30
2019-01-12T02:20:50.123Z,48.80
2019-01-12T02:23:55.263Z,48.50
2019-01-12T02:27:00.253Z,48.80
2019-01-12T02:30:07.460Z,48.80
2019-01-12T02:33:12.450Z,49.10
2019-01-12T02:36:17.451Z,49.00
2019-01-12T02:39:22.617Z,48.30
2019-01-12T02:42:27.526Z,48.50
2019-01-12T02:45:32.435Z,48.90
2019-01-12T02:48:37.387Z,48.40
2019-01-12T02:51:42.539Z,48.70
2019-01-12T02:54:47.461Z,48.50
2019-01-12T02:57:52.381Z,49.00
2019-01-12T03:00:57.271Z,49.10
2019-01-12T03:04:02.209Z,49.00
2019-01-12T03:07:07.889Z,49.00
2019-01-12T03:10:14.463Z,49.60
2019-01-12T03:13:19.690Z,49.00
2019-01-12T03:16:24.647Z,48.90
2019-01-12T03:19:29.730Z,48.90
2019-01-12T03:22:34.730Z,49.00
2019-01-12T03:25:39.701Z,48.50
2019-01-12T03:28:44.864Z,48.60
2019-01-12T03:31:49.729Z,49.10
2019-01-12T03:34:54.646Z,49.10
2019-01-12T03:37:59.707Z,49.10
2019-01-12T03:41:05.209Z,49.50
2019-01-12T03:44:10.288Z,49.10
2019-01-12T03:47:15.307Z,49.80
2019-01-12T03:50:21.177Z,50.00
2019-01-12T03:53:26.078Z,50.10
2019-01-12T03:56:31.222Z,50.80
2019-01-12T03:59:36.173Z,50.00
2019-01-12T04:02:41.125Z,50.00
2019-01-12T04:05:46.342Z,50.40
2019-01-12T04:08:51.303Z,50.50
2019-01-12T04:11:56.191Z,50.80
2019-01-12T04:15:01.370Z,50.50
2019-01-12T04:18:06.518Z,50.00
2019-01-12T04:21:11.579Z,50.10
2019-01-12T04:24:16.458Z,49.70
2019-01-12T04:27:21.576Z,49.20
2019-01-12T04:30:26.574Z,49.30
2019-01-12T04:33:31.612Z,49.20
2019-01-12T04:36:36.738Z,49.30
2019-01-12T04:39:41.706Z,49.30
2019-01-12T04:42:46.659Z,49.30
2019-01-12T04:45:51.709Z,49.30
2019-01-12T04:48:56.691Z,49.20
2019-01-12T04:52:01.969Z,49.00
2019-01-12T04:55:07.386Z,49.30
2019-01-12T04:58:12.485Z,49.40
2019-01-12T05:01:17.457Z,50.20
2019-01-12T05:04:22.416Z,50.40
2019-01-12T05:07:27.437Z,50.10
2019-01-12T05:10:32.292Z,50.10
2019-01-12T05:13:37.299Z,50.20
2019-01-12T05:16:42.477Z,50.20
2019-01-12T05:19:47.506Z,50.10
2019-01-12T05:22:52.740Z,50.30
2019-01-12T05:25:57.734Z,50.40
2019-01-12T05:29:03.024Z,50.30
2019-01-12T05:32:08.136Z,50.40
2019-01-12T05:35:13.067Z,50.50
2019-01-12T05:38:18.045Z,50.50
2019-01-12T05:41:23.182Z,50.80
2019-01-12T05:44:28.501Z,51.00
2019-01-12T05:47:33.486Z,51.30
2019-01-12T05:50:38.582Z,52.30
2019-01-12T05:53:43.989Z,52.20
2019-01-12T05:56:49.235Z,52.00
2019-01-12T05:59:54.144Z,51.90
2019-01-12T06:02:59.064Z,52.00
2019-01-12T06:06:04.119Z,52.00
2019-01-12T06:09:09.220Z,52.20
2019-01-12T06:12:14.214Z,52.20
2019-01-12T06:15:19.327Z,52.70
2019-01-12T06:18:24.473Z,51.90
2019-01-12T06:21:29.542Z,52.00
2019-01-12T06:24:34.753Z,51.90
2019-01-12T06:27:39.677Z,52.10
2019-01-12T06:30:44.568Z,52.20
2019-01-12T06:33:49.469Z,52.10
2019-01-12T06:36:54.562Z,52.20
2019-01-12T06:39:59.630Z,52.30
2019-01-12T06:43:04.594Z,52.20
2019-01-12T06:46:09.704Z,52.10
2019-01-12T06:49:14.669Z,52.50
2019-01-12T06:52:19.772Z,52.40
2019-01-12T06:55:24.747Z,52.60
2019-01-12T06:58:29.855Z,52.80
2019-01-12T07:01:35.218Z,52.50
2019-01-12T07:04:40.259Z,52.40
2019-01-12T07:07:45.512Z,52.70
2019-01-12T07:10:50.420Z,52.40
2019-01-12T07:13:55.286Z,52.40
2019-01-12T07:17:00.237Z,52.90
2019-01-12T07:20:06.270Z,52.80
2019-01-12T07:23:11.419Z,52.80
2019-01-12T07:26:21.799Z,53.00
2019-01-12T07:29:26.820Z,52.50
2019-01-12T07:32:32.061Z,52.40
2019-01-12T07:35:36.979Z,52.40
2019-01-12T07:38:41.886Z,51.80
2019-01-12T07:41:46.955Z,51.70
2019-01-12T07:44:52.224Z,51.30
2019-01-12T07:47:57.132Z,51.20
2019-01-12T07:51:02.299Z,51.40
2019-01-12T07:54:07.238Z,51.20
2019-01-12T07:57:12.177Z,50.90
2019-01-12T08:00:19.571Z,51.60
2019-01-12T08:03:24.666Z,51.00
2019-01-12T08:06:29.877Z,50.80
2019-01-12T08:09:35.036Z,49.60
2019-01-12T08:12:39.905Z,49.30
2019-01-12T08:15:45.169Z,49.80
2019-01-12T08:18:50.740Z,48.50
2019-01-12T08:21:56.040Z,47.70
2019-01-12T08:25:01.138Z,47.40
2019-01-12T08:28:06.347Z,47.10
2019-01-12T08:31:11.492Z,46.90
2019-01-12T08:34:16.467Z,46.00
2019-01-12T08:37:21.417Z,45.20
2019-01-12T08:40:26.457Z,45.10
2019-01-12T08:43:31.501Z,45.00
2019-01-12T08:46:36.575Z,44.50
2019-01-12T08:49:41.861Z,44.30
2019-01-12T08:52:46.922Z,43.70
2019-01-12T08:55:51.917Z,43.50
2019-01-12T08:58:56.822Z,43.80
2019-01-12T09:02:01.992Z,44.10
2019-01-12T09:05:07.645Z,44.40
2019-01-12T09:08:12.897Z,44.30
2019-01-12T09:11:17.829Z,44.40
2019-01-12T09:14:22.739Z,44.20
2019-01-12T09:17:27.733Z,43.50
2019-01-12T09:20:32.889Z,43.20
2019-01-12T09:23:37.944Z,43.20
2019-01-12T09:26:44.989Z,42.40
2019-01-12T09:29:49.672Z,42.60
2019-01-12T09:32:55.084Z,42.00
2019-01-12T09:36:00.009Z,41.70
2019-01-12T09:39:07.996Z,40.70
2019-01-12T09:42:13.055Z,40.20
2019-01-12T09:45:18.673Z,40.10
2019-01-12T09:48:23.616Z,40.00
2019-01-12T09:51:28.574Z,39.40
2019-01-12T09:54:33.406Z,39.60
2019-01-12T09:57:38.394Z,39.50
2019-01-12T10:00:43.502Z,39.40
2019-01-12T10:03:48.725Z,38.60
2019-01-12T10:06:53.637Z,38.80
2019-01-12T10:09:58.784Z,38.30
2019-01-12T10:13:03.730Z,37.50
2019-01-12T10:16:08.697Z,37.20
2019-01-12T10:19:13.578Z,36.50
2019-01-12T10:22:18.492Z,36.30
2019-01-12T10:25:23.580Z,36.10
2019-01-12T10:28:28.686Z,36.00
2019-01-12T10:31:33.651Z,36.90
2019-01-12T10:34:38.688Z,37.40
2019-01-12T10:37:44.177Z,36.60
2019-01-12T10:40:49.385Z,37.30
2019-01-12T10:43:54.364Z,37.50
2019-01-12T10:46:59.308Z,37.40
2019-01-12T10:50:07.735Z,37.30
2019-01-12T10:53:13.105Z,37.60
2019-01-12T10:56:18.209Z,37.90
2019-01-12T10:59:23.258Z,38.30
2019-01-12T11:02:28.325Z,38.10
2019-01-12T11:05:33.450Z,37.90
2019-01-12T11:08:38.732Z,37.80
2019-01-12T11:11:43.774Z,37.70
2019-01-12T11:14:48.822Z,37.90
2019-01-12T11:17:53.796Z,37.60
2019-01-12T11:20:59.055Z,36.90
2019-01-12T11:24:04.156Z,33.10
2019-01-12T11:27:12.303Z,29.30
2019-01-12T11:30:18.204Z,27.00
2019-01-12T11:33:23.589Z,25.10
2019-01-12T11:36:28.533Z,24.40
2019-01-12T11:39:33.641Z,24.90
2019-01-12T11:42:38.665Z,25.40
2019-01-12T11:45:43.909Z,26.40
2019-01-12T11:48:48.925Z,26.80
2019-01-12T11:51:54.195Z,27.50
2019-01-12T11:54:59.528Z,28.00
2019-01-12T11:58:05.129Z,28.70
2019-01-12T12:01:10.040Z,28.80
2019-01-12T12:04:15.205Z,28.10
2019-01-12T12:07:20.482Z,25.20
2019-01-12T12:10:25.577Z,23.70
2019-01-12T12:13:30.766Z,23.60
2019-01-12T12:16:35.786Z,22.90
2019-01-12T12:19:40.785Z,23.20
2019-01-12T12:22:45.883Z,24.30
2019-01-12T12:25:51.269Z,25.70
2019-01-12T12:28:56.281Z,27.20
2019-01-12T12:32:01.435Z,28.80
2019-01-12T12:35:07.790Z,29.60
2019-01-12T12:38:12.881Z,30.50
2019-01-12T12:41:17.846Z,31.60
2019-01-12T12:44:23.184Z,32.70
2019-01-12T12:47:28.349Z,33.40
2019-01-12T12:50:33.414Z,33.40
2019-01-12T12:53:38.404Z,33.10
2019-01-12T12:56:43.630Z,32.90
2019-01-12T12:59:48.456Z,31.60
2019-01-12T13:02:53.493Z,30.90
2019-01-12T13:05:58.577Z,31.50
2019-01-12T13:09:05.685Z,31.80
2019-01-12T13:12:11.003Z,33.00
2019-01-12T13:15:16.645Z,32.80
2019-01-12T13:18:21.811Z,32.90
2019-01-12T13:21:26.849Z,33.30
2019-01-12T13:24:31.914Z,33.40
2019-01-12T13:27:40.040Z,33.10
2019-01-12T13:30:44.142Z,32.50
2019-01-12T13:33:49.381Z,31.70
2019-01-12T13:36:54.669Z,30.10
2019-01-12T13:39:59.750Z,30.00
2019-01-12T13:43:04.907Z,30.60
2019-01-12T13:46:09.974Z,31.50
2019-01-12T13:49:15.133Z,33.00
2019-01-12T13:52:19.976Z,34.00
2019-01-12T13:55:25.014Z,33.80
2019-01-12T13:58:30.166Z,31.70
2019-01-12T14:01:35.293Z,30.00
2019-01-12T14:04:40.192Z,28.10
2019-01-12T14:07:45.418Z,26.50
2019-01-12T14:10:50.712Z,27.10
2019-01-12T14:13:55.786Z,26.50
2019-01-12T14:17:01.003Z,26.40
2019-01-12T14:20:09.168Z,27.70
2019-01-12T14:23:14.339Z,28.30
2019-01-12T14:26:19.660Z,29.00
2019-01-12T14:29:24.762Z,29.10
2019-01-12T14:32:30.134Z,29.60
2019-01-12T14:35:35.374Z,30.50
2019-01-12T14:38:40.417Z,31.50
2019-01-12T14:41:45.356Z,32.30
2019-01-12T14:44:50.599Z,34.10
2019-01-12T14:47:55.609Z,35.40
2019-01-12T14:51:00.666Z,37.30
2019-01-12T14:54:05.816Z,38.50
2019-01-12T14:57:10.879Z,39.10
2019-01-12T15:00:20.667Z,39.70
2019-01-12T15:03:25.679Z,40.40
2019-01-12T15:06:30.638Z,40.90
2019-01-12T15:09:35.644Z,41.30
2019-01-12T15:12:40.729Z,41.70
2019-01-12T15:15:45.661Z,42.00
2019-01-12T15:18:50.851Z,42.50
2019-01-12T15:21:55.889Z,42.80
2019-01-12T15:25:01.051Z,43.20
2019-01-12T15:28:09.303Z,43.70
2019-01-12T15:31:12.511Z,44.20
2019-01-12T15:34:17.588Z,44.70
2019-01-12T15:37:22.898Z,45.00
2019-01-12T15:40:27.992Z,45.30
2019-01-12T15:43:32.891Z,45.50
2019-01-12T15:46:37.860Z,45.80
2019-01-12T15:49:42.798Z,46.10
2019-01-12T15:52:47.907Z,46.40
2019-01-12T15:55:53.196Z,46.90
2019-01-12T15:58:58.364Z,47.10
2019-01-12T16:02:03.816Z,47.20
2019-01-12T16:05:09.682Z,47.70
2019-01-12T16:08:14.905Z,48.20
2019-01-12T16:11:19.738Z,48.30
2019-01-12T16:14:24.727Z,48.70
2019-01-12T16:17:29.690Z,49.10
2019-01-12T16:20:39.522Z,49.50
2019-01-12T16:23:44.683Z,49.60
2019-01-12T16:26:49.773Z,49.70
2019-01-12T16:29:54.768Z,49.90
2019-01-12T16:32:59.845Z,50.10
2019-01-12T16:36:04.868Z,50.60
2019-01-12T16:39:10.408Z,50.60
2019-01-12T16:42:15.515Z,51.00
2019-01-12T16:45:20.592Z,51.00
2019-01-12T16:48:26.048Z,51.40
2019-01-12T16:51:31.274Z,51.50
2019-01-12T16:54:36.652Z,51.70
2019-01-12T16:57:41.793Z,51.60
2019-01-12T17:00:46.805Z,52.00
2019-01-12T17:03:51.961Z,52.10
2019-01-12T17:06:56.895Z,52.10
2019-01-12T17:10:01.778Z,52.10
2019-01-12T17:13:06.939Z,52.40
2019-01-12T17:16:12.070Z,53.10
2019-01-12T17:19:17.561Z,53.00
2019-01-12T17:22:22.613Z,53.20
2019-01-12T17:25:27.862Z,53.00
2019-01-12T17:28:37.217Z,53.20
2019-01-12T17:31:40.269Z,53.50
2019-01-12T17:34:45.361Z,53.60
2019-01-12T17:37:51.068Z,54.10
2019-01-12T17:40:56.309Z,54.30
2019-01-12T17:44:01.257Z,54.40
2019-01-12T17:47:06.540Z,54.60
2019-01-12T17:50:13.433Z,54.70
2019-01-12T17:53:18.462Z,54.60
2019-01-12T17:56:23.892Z,54.80
2019-01-12T17:59:29.013Z,54.90
2019-01-12T18:02:34.168Z,54.90
2019-01-12T18:05:39.320Z,55.20
2019-01-12T18:08:44.601Z,55.30
2019-01-12T18:11:50.031Z,55.30
2019-01-12T18:14:55.133Z,55.50
2019-01-12T18:18:00.493Z,55.60
2019-01-12T18:21:05.700Z,55.60
2019-01-12T18:24:10.690Z,55.60
2019-01-12T18:27:15.792Z,55.70
2019-01-12T18:30:21.364Z,55.80
2019-01-12T18:33:26.572Z,56.10
2019-01-12T18:36:31.713Z,56.40
2019-01-12T18:39:36.705Z,56.50
2019-01-12T18:42:41.862Z,56.90
2019-01-12T18:45:47.020Z,56.60
2019-01-12T18:48:52.013Z,56.50
2019-01-12T18:51:57.126Z,56.50
2019-01-12T18:55:02.238Z,56.80
2019-01-12T18:58:07.320Z,56.80
2019-01-12T19:01:12.416Z,56.70
2019-01-12T19:04:17.577Z,56.90
2019-01-12T19:07:22.646Z,56.90
2019-01-12T19:10:27.832Z,57.00
2019-01-12T19:13:32.929Z,56.80
2019-01-12T19:16:37.964Z,57.50
2019-01-12T19:19:42.970Z,56.90
2019-01-12T19:22:48.419Z,57.00
2019-01-12T19:25:53.442Z,57.30
2019-01-12T19:28:58.417Z,57.30
2019-01-12T19:32:03.854Z,57.30
2019-01-12T19:35:08.830Z,57.40
2019-01-12T19:38:14.264Z,57.50
2019-01-12T19:41:19.432Z,57.80
2019-01-12T19:44:24.444Z,58.20
2019-01-12T19:47:29.562Z,58.10
2019-01-12T19:50:34.607Z,58.00
2019-01-12T19:53:39.608Z,57.80
2019-01-12T19:56:44.616Z,57.90
2019-01-12T19:59:49.961Z,57.90
2019-01-12T20:02:55.786Z,57.70
2019-01-12T20:06:00.796Z,58.10
2019-01-12T20:09:24.613Z,58.40
2019-01-12T20:12:30.044Z,58.30
2019-01-12T20:15:35.528Z,58.50
2019-01-12T20:18:40.556Z,58.70
2019-01-12T20:21:45.537Z,58.70
2019-01-12T20:24:50.727Z,59.10
2019-01-12T20:27:55.770Z,59.10
2019-01-12T20:31:54.720Z,58.90
2019-01-12T20:35:42.300Z,59.10
2019-01-12T20:39:22.646Z,58.90
2019-01-12T20:42:53.962Z,58.70
2019-01-12T20:46:14.432Z,58.70
2019-01-12T20:50:01.871Z,59.20
2019-01-12T20:53:23.664Z,59.50
2019-01-12T20:57:43.151Z,59.20
2019-01-12T21:01:30.636Z,59.10
2019-01-12T21:05:16.046Z,59.90
2019-01-12T21:08:48.577Z,59.30
2019-01-12T21:12:34.515Z,59.30
2019-01-12T21:15:44.696Z,59.60
2019-01-12T21:18:49.719Z,60.10
2019-01-12T21:21:55.169Z,60.00
2019-01-12T21:25:00.424Z,59.70
2019-01-12T21:28:05.932Z,60.60
2019-01-12T21:31:10.871Z,61.40
2019-01-12T21:34:16.008Z,59.90
2019-01-12T21:37:21.131Z,59.50
2019-01-12T21:40:26.915Z,59.70
2019-01-12T21:43:32.122Z,59.80
2019-01-12T21:46:37.368Z,59.40
2019-01-12T21:49:42.612Z,59.40
2019-01-12T21:52:47.976Z,59.20
2019-01-12T21:55:53.554Z,59.10
2019-01-12T21:58:58.765Z,59.40
2019-01-12T22:02:04.313Z,59.20
2019-01-12T22:05:10.117Z,59.40
2019-01-12T22:08:15.458Z,59.40
2019-01-12T22:11:24.325Z,59.40
2019-01-12T22:14:29.260Z,59.40
2019-01-12T22:17:34.243Z,59.40
2019-01-12T22:20:39.319Z,59.40
2019-01-12T22:23:44.323Z,59.40
2019-01-12T22:26:49.568Z,59.70
2019-01-12T22:29:54.622Z,59.80
2019-01-12T22:32:59.715Z,59.80
2019-01-12T22:36:04.764Z,59.80
2019-01-12T22:39:10.778Z,59.70
2019-01-12T22:42:15.778Z,59.70
2019-01-12T22:45:20.919Z,59.70
2019-01-12T22:48:25.884Z,59.70
2019-01-12T22:51:30.796Z,59.70
2019-01-12T22:54:35.944Z,59.90
2019-01-12T22:57:40.896Z,60.40
2019-01-12T23:01:11.230Z,61.00
2019-01-12T23:04:18.754Z,61.40
2019-01-12T23:07:24.269Z,62.00
2019-01-12T23:10:29.572Z,62.20
2019-01-12T23:13:34.656Z,62.30
2019-01-12T23:16:39.792Z,62.20
2019-01-12T23:19:44.857Z,62.20
2019-01-12T23:22:50.297Z,62.50
2019-01-12T23:25:55.214Z,62.60
2019-01-12T23:29:00.365Z,63.10
2019-01-12T23:32:05.632Z,62.80
2019-01-12T23:35:11.232Z,62.50
2019-01-12T23:38:16.317Z,62.10
2019-01-12T23:41:21.450Z,62.30
2019-01-12T23:44:26.531Z,62.20
2019-01-12T23:47:32.017Z,62.20
2019-01-12T23:50:37.031Z,62.00
2019-01-12T23:53:42.009Z,62.00
2019-01-12T23:56:47.241Z,61.90
2019-01-12T23:59:52.131Z,61.80
